Time;durP1;ratioP1;P1;durP2;ratioP2;P2;SDS_P1;SDS_P2;PMS_P1;PMS_P2;Temp;Humidity;BMP_temperature;BMP_pressure;BME280_temperature;BME280_humidity;BME280_pressure;Samples;Min_cycle;Max_cycle;Signal;HPM_P1;HPM_P2
2023/10/10 00:00:38;;;;;;;0.20;0.20;;;17.20;51.90;;;;;;5092450;28;20263;-86
2023/10/10 00:03:08;;;;;;;0.53;0.53;;;17.20;51.90;;;;;;5094243;28;20242;-86
2023/10/10 00:05:37;;;;;;;0.43;0.37;;;17.10;52.00;;;;;;5096659;28;20282;-88
2023/10/10 00:08:09;;;;;;;0.33;0.30;;;17.10;52.10;;;;;;5090547;28;20196;-87
2023/10/10 00:10:49;;;;;;;0.40;0.40;;;17.10;52.20;;;;;;5090857;28;20186;-87
2023/10/10 00:13:19;;;;;;;1.13;0.77;;;17.00;52.20;;;;;;5089950;28;20600;-86
2023/10/10 00:15:55;;;;;;;0.63;0.60;;;17.00;52.30;;;;;;5086940;28;20591;-87
2023/10/10 00:18:24;;;;;;;0.40;0.40;;;16.90;52.40;;;;;;5089151;28;20200;-85
2023/10/10 00:21:06;;;;;;;4.73;1.07;;;16.90;52.40;;;;;;5095180;28;20564;-87
2023/10/10 00:23:42;;;;;;;0.53;0.53;;;16.90;52.50;;;;;;5084918;28;20202;-85
2023/10/10 00:26:14;;;;;;;0.30;0.30;;;16.80;52.50;;;;;;5076137;28;20224;-87
2023/10/10 00:28:45;;;;;;;0.27;0.27;;;16.80;53.10;;;;;;5075336;28;20222;-87
2023/10/10 00:31:18;;;;;;;0.50;0.50;;;16.80;53.10;;;;;;5074373;28;20274;-88
2023/10/10 00:33:50;;;;;;;2.57;1.00;;;16.70;53.60;;;;;;5080023;28;20260;-86
2023/10/10 00:36:28;;;;;;;1.40;1.20;;;16.70;53.00;;;;;;5077674;28;20537;-89
2023/10/10 00:39:06;;;;;;;0.40;0.40;;;16.70;53.10;;;;;;5083479;28;20272;-87
2023/10/10 00:44:11;;;;;;;0.30;0.30;;;16.60;53.40;;;;;;5047404;28;20279;-88
2023/10/10 00:46:47;;;;;;;0.30;0.30;;;16.60;53.50;;;;;;5053941;28;20191;-87
2023/10/10 00:49:17;;;;;;;2.00;0.70;;;16.60;53.40;;;;;;5052027;28;20183;-88
2023/10/10 00:51:47;;;;;;;0.40;0.40;;;16.60;53.40;;;;;;5061301;28;20190;-87
2023/10/10 00:54:30;;;;;;;0.43;0.43;;;16.50;53.70;;;;;;5051614;28;20199;-88
2023/10/10 00:57:03;;;;;;;0.50;0.50;;;16.50;54.20;;;;;;5051786;28;20278;-86
2023/10/10 00:59:35;;;;;;;0.43;0.43;;;16.50;54.40;;;;;;5052622;28;20195;-86
2023/10/10 01:02:06;;;;;;;0.30;0.30;;;16.40;54.40;;;;;;5063417;28;20198;-89
2023/10/10 01:04:48;;;;;;;0.60;0.60;;;16.40;54.30;;;;;;5051155;28;20225;-88
2023/10/10 01:07:19;;;;;;;0.50;0.50;;;16.40;54.30;;;;;;5050290;28;20192;-88
2023/10/10 01:10:11;;;;;;;0.30;0.30;;;16.30;54.40;;;;;;5038771;28;20662;-88
2023/10/10 01:12:40;;;;;;;2.63;0.93;;;16.30;54.40;;;;;;5051557;28;20219;-86
2023/10/10 01:15:14;;;;;;;0.20;0.20;;;16.30;54.60;;;;;;5036541;28;20206;-87
2023/10/10 01:17:46;;;;;;;0.70;0.70;;;16.30;54.70;;;;;;5049165;28;20195;-88
2023/10/10 01:20:25;;;;;;;0.50;0.50;;;16.20;55.10;;;;;;5053542;28;20595;-87
2023/10/10 01:22:56;;;;;;;2.03;1.60;;;16.20;55.00;;;;;;5048689;28;20198;-86
2023/10/10 01:25:42;;;;;;;0.30;0.30;;;16.20;55.00;;;;;;5050201;28;20194;-88
2023/10/10 01:28:27;;;;;;;0.30;0.30;;;16.10;54.90;;;;;;5040433;28;20275;-87
2023/10/10 01:31:03;;;;;;;0.57;0.57;;;16.10;55.00;;;;;;5052513;28;20204;-86
2023/10/10 01:33:47;;;;;;;0.50;0.50;;;16.10;55.10;;;;;;5051010;28;20325;-87
2023/10/10 01:36:29;;;;;;;0.83;0.50;;;16.00;55.70;;;;;;5055808;28;20704;-85
2023/10/10 01:39:26;;;;;;;2.83;1.03;;;16.00;55.80;;;;;;5047135;28;20195;-87
2023/10/10 01:41:58;;;;;;;2.37;0.97;;;15.90;55.70;;;;;;5045563;28;20191;-87
2023/10/10 01:44:27;;;;;;;0.50;0.50;;;15.90;55.70;;;;;;5049795;28;20202;-86
2023/10/10 01:46:56;;;;;;;0.40;0.40;;;15.80;55.70;;;;;;5042812;28;20269;-86
2023/10/10 01:49:30;;;;;;;2.10;0.80;;;15.90;55.70;;;;;;5047623;28;20197;-86
2023/10/10 01:52:00;;;;;;;0.93;0.53;;;15.80;55.70;;;;;;5060244;28;20278;-86
2023/10/10 01:54:40;;;;;;;0.70;0.40;;;15.80;55.60;;;;;;5042786;28;20278;-86
2023/10/10 01:57:21;;;;;;;0.30;0.30;;;15.80;55.60;;;;;;5044420;28;20195;-86
2023/10/10 01:59:51;;;;;;;0.30;0.30;;;15.80;55.50;;;;;;5043522;28;20198;-86
2023/10/10 02:02:23;;;;;;;1.63;0.97;;;15.80;55.70;;;;;;5047809;28;21123;-88
2023/10/10 02:04:57;;;;;;;0.50;0.43;;;15.70;55.90;;;;;;5044452;28;20188;-87
2023/10/10 02:07:31;;;;;;;0.93;0.50;;;15.70;56.80;;;;;;5044508;28;20192;-87
2023/10/10 02:10:13;;;;;;;0.77;0.77;;;15.70;57.00;;;;;;5053859;28;20218;-88
2023/10/10 02:12:44;;;;;;;0.20;0.20;;;15.60;57.20;;;;;;5052757;28;20230;-89
2023/10/10 02:15:15;;;;;;;0.30;0.30;;;15.50;57.30;;;;;;5059768;28;20277;-88
2023/10/10 02:17:51;;;;;;;0.30;0.30;;;15.50;57.20;;;;;;5061368;28;20206;-87
2023/10/10 02:20:33;;;;;;;0.40;0.37;;;15.50;57.00;;;;;;5085928;28;20185;-87
2023/10/10 02:23:09;;;;;;;0.30;0.30;;;15.40;56.90;;;;;;5075801;28;20221;-87
2023/10/10 02:25:40;;;;;;;0.40;0.40;;;15.50;56.90;;;;;;5077042;28;20258;-88
2023/10/10 02:28:20;;;;;;;0.40;0.40;;;15.40;56.90;;;;;;5073369;28;20182;-89
2023/10/10 02:30:52;;;;;;;0.40;0.40;;;15.40;57.00;;;;;;5079929;28;20222;-88
2023/10/10 02:33:31;;;;;;;0.40;0.40;;;15.40;57.00;;;;;;5080406;28;20207;-88
2023/10/10 02:36:00;;;;;;;0.30;0.30;;;15.40;57.10;;;;;;5074390;28;20190;-87
2023/10/10 02:38:34;;;;;;;0.67;0.67;;;15.40;57.30;;;;;;5045951;28;20195;-89
2023/10/10 02:41:38;;;;;;;0.30;0.30;;;15.40;57.30;;;;;;5042624;28;20813;-86
2023/10/10 02:44:09;;;;;;;0.30;0.30;;;15.40;57.40;;;;;;5057844;28;20233;-88
2023/10/10 02:46:41;;;;;;;0.87;0.87;;;15.40;57.80;;;;;;5048372;28;20567;-87
2023/10/10 02:49:22;;;;;;;0.40;0.40;;;15.40;58.30;;;;;;5050584;28;20628;-87
2023/10/10 02:51:55;;;;;;;0.47;0.47;;;15.40;58.80;;;;;;5048570;28;20191;-87
2023/10/10 02:54:32;;;;;;;0.53;0.53;;;15.40;60.60;;;;;;5051459;28;20213;-88
2023/10/10 02:59:51;;;;;;;1.60;1.03;;;15.30;59.90;;;;;;5048054;28;20217;-87
2023/10/10 03:02:40;;;;;;;1.50;0.53;;;15.30;59.80;;;;;;5057355;28;20190;-88
2023/10/10 03:05:16;;;;;;;1.80;0.47;;;15.30;59.60;;;;;;5041345;28;20195;-87
2023/10/10 03:07:51;;;;;;;2.30;0.87;;;15.30;59.90;;;;;;5048389;28;20221;-87
2023/10/10 03:10:35;;;;;;;0.53;0.53;;;15.30;60.80;;;;;;5049552;28;20278;-87
2023/10/10 03:13:13;;;;;;;0.83;0.83;;;15.30;60.00;;;;;;5058993;28;20222;-87
2023/10/10 03:15:51;;;;;;;0.73;0.50;;;15.20;60.00;;;;;;5053126;28;20337;-88
2023/10/10 03:18:28;;;;;;;0.87;0.73;;;15.20;59.70;;;;;;5057028;28;20190;-88
2023/10/10 03:21:12;;;;;;;0.40;0.40;;;15.20;59.60;;;;;;5059824;28;20623;-88
2023/10/10 03:24:07;;;;;;;0.40;0.40;;;15.20;59.50;;;;;;5055144;28;20822;-87
2023/10/10 03:26:59;;;;;;;0.80;0.80;;;15.20;59.40;;;;;;5050073;28;20201;-86
2023/10/10 03:29:46;;;;;;;0.73;0.73;;;15.20;59.40;;;;;;5050393;28;20248;-87
2023/10/10 03:32:30;;;;;;;0.47;0.47;;;15.20;59.50;;;;;;5053167;28;20191;-87
2023/10/10 03:35:13;;;;;;;2.40;0.83;;;15.20;59.60;;;;;;5061167;28;20221;-85
2023/10/10 03:37:53;;;;;;;0.30;0.30;;;15.20;59.50;;;;;;5042209;28;20199;-86
2023/10/10 03:40:26;;;;;;;0.43;0.43;;;15.20;59.50;;;;;;5048706;28;20549;-88
2023/10/10 05:28:29;;;;;;;1.03;1.03;;;15.20;61.50;;;;;;4991512;28;20196;-90
2023/10/10 05:35:10;;;;;;;0.43;0.43;;;15.20;61.90;;;;;;4837577;29;20725;-87
2023/10/10 05:37:40;;;;;;;3.87;1.03;;;15.30;62.20;;;;;;5001488;28;20202;-88
2023/10/10 05:40:13;;;;;;;1.60;1.07;;;15.30;62.20;;;;;;5051791;28;20655;-88
2023/10/10 05:42:45;;;;;;;0.57;0.57;;;15.30;62.50;;;;;;5053413;28;20187;-87
2023/10/10 05:45:14;;;;;;;0.90;0.77;;;15.40;62.50;;;;;;5044981;28;20195;-87
2023/10/10 05:57:05;;;;;;;1.27;1.17;;;15.50;62.90;;;;;;4961204;28;20236;-87
2023/10/10 05:59:34;;;;;;;1.50;0.70;;;15.60;62.60;;;;;;4987625;28;20214;-86
2023/10/10 06:08:43;;;;;;;0.33;0.33;;;15.80;62.30;;;;;;5832407;23;20225;-86
2023/10/10 06:11:14;;;;;;;1.30;1.20;;;15.90;61.30;;;;;;5001527;28;20266;-88
2023/10/10 06:13:45;;;;;;;2.03;1.55;;;15.90;61.00;;;;;;4991584;28;20461;-87
2023/10/10 06:16:18;;;;;;;1.17;1.07;;;16.00;60.90;;;;;;4989322;28;20228;-88
2023/10/10 06:18:50;;;;;;;0.50;0.50;;;16.10;60.80;;;;;;4984864;28;20201;-88
2023/10/10 06:21:22;;;;;;;0.40;0.40;;;16.20;60.80;;;;;;4984107;28;20245;-87
2023/10/10 06:23:52;;;;;;;0.60;0.40;;;16.20;60.70;;;;;;4998962;28;20280;-89
2023/10/10 06:26:24;;;;;;;3.80;0.60;;;16.30;60.50;;;;;;4979328;28;20189;-85
2023/10/10 06:29:04;;;;;;;2.17;2.00;;;16.40;60.20;;;;;;4981061;28;20205;-86
2023/10/10 06:31:54;;;;;;;1.73;0.53;;;16.40;59.50;;;;;;4947712;28;20226;-87
2023/10/10 06:34:34;;;;;;;0.63;0.63;;;16.60;59.20;;;;;;4941302;28;20636;-86
2023/10/10 06:37:18;;;;;;;0.30;0.30;;;16.50;58.40;;;;;;4944799;28;20214;-86
2023/10/10 06:43:11;;;;;;;2.83;1.03;;;16.70;58.10;;;;;;4925791;28;20297;-85
2023/10/10 06:46:16;;;;;;;0.30;0.30;;;16.80;58.00;;;;;;4926932;29;20198;-84
2023/10/10 06:49:04;;;;;;;1.93;1.27;;;16.90;57.70;;;;;;4980926;28;20201;-85
2023/10/10 06:52:04;;;;;;;1.90;1.07;;;17.00;57.10;;;;;;4990271;28;20225;-87
2023/10/10 06:54:44;;;;;;;0.30;0.30;;;17.10;56.70;;;;;;4987559;28;20224;-86
2023/10/10 06:57:18;;;;;;;0.60;0.60;;;17.10;55.50;;;;;;4987013;28;20204;-86
2023/10/10 06:59:48;;;;;;;2.00;1.17;;;17.20;55.90;;;;;;4982840;28;22328;-87
2023/10/10 07:02:21;;;;;;;0.30;0.30;;;17.30;56.00;;;;;;4993447;28;20273;-86
2023/10/10 07:04:53;;;;;;;1.27;0.70;;;17.30;55.50;;;;;;4991812;28;20248;-85
2023/10/10 07:07:26;;;;;;;0.40;0.40;;;17.40;55.80;;;;;;4986604;28;20708;-85
2023/10/10 07:09:59;;;;;;;0.40;0.40;;;17.50;55.10;;;;;;4986061;28;20228;-86
2023/10/10 07:12:28;;;;;;;0.40;0.40;;;17.60;55.20;;;;;;4989005;28;20668;-85
2023/10/10 07:15:00;;;;;;;0.30;0.30;;;17.60;55.20;;;;;;4978464;28;20235;-86
2023/10/10 07:17:30;;;;;;;1.03;0.43;;;17.70;54.70;;;;;;4981294;28;21068;-86
2023/10/10 07:22:54;;;;;;;0.30;0.30;;;17.90;54.60;;;;;;4951035;28;20213;-87
2023/10/10 07:25:31;;;;;;;0.43;0.43;;;17.90;54.30;;;;;;4982365;28;20199;-85
2023/10/10 07:28:02;;;;;;;1.07;0.93;;;18.00;54.00;;;;;;4988298;28;20200;-83
2023/10/10 07:30:35;;;;;;;0.30;0.30;;;18.10;53.80;;;;;;4980913;28;20193;-85
2023/10/10 07:33:12;;;;;;;0.30;0.30;;;18.10;53.40;;;;;;4981825;28;20202;-86
2023/10/10 07:35:53;;;;;;;0.40;0.40;;;18.20;53.70;;;;;;4992455;28;20219;-86
2023/10/10 07:38:28;;;;;;;1.37;0.57;;;18.30;53.90;;;;;;4989983;28;20644;-86
2023/10/10 07:40:58;;;;;;;2.33;0.80;;;18.30;53.30;;;;;;4982393;28;20288;-86
2023/10/10 07:43:27;;;;;;;0.33;0.33;;;18.40;53.10;;;;;;4986139;28;20208;-86
2023/10/10 07:45:56;;;;;;;5.60;0.90;;;18.50;52.50;;;;;;4990376;28;20198;-85
2023/10/10 07:48:44;;;;;;;12.93;1.70;;;18.60;52.20;;;;;;4991187;28;20201;-86
2023/10/10 07:51:27;;;;;;;0.30;0.30;;;18.60;51.90;;;;;;4996272;28;20211;-85
2023/10/10 07:54:11;;;;;;;1.70;0.77;;;18.70;51.80;;;;;;4993975;28;20193;-86
2023/10/10 07:56:45;;;;;;;0.37;0.37;;;18.70;51.80;;;;;;4995110;28;20711;-85
2023/10/10 07:59:16;;;;;;;0.30;0.30;;;18.80;51.80;;;;;;4989029;28;20537;-86
2023/10/10 08:01:47;;;;;;;0.30;0.30;;;18.80;51.40;;;;;;4993858;28;20199;-88
2023/10/10 08:04:19;;;;;;;0.60;0.60;;;18.90;51.70;;;;;;4994078;28;20193;-86
2023/10/10 08:06:48;;;;;;;0.53;0.53;;;19.00;51.60;;;;;;4995652;28;20216;-86
2023/10/10 08:09:19;;;;;;;0.50;0.50;;;19.00;51.50;;;;;;4992494;28;20228;-85
2023/10/10 08:11:54;;;;;;;0.63;0.63;;;19.10;51.40;;;;;;4994592;28;20201;-88
2023/10/10 08:14:30;;;;;;;0.30;0.30;;;19.10;51.60;;;;;;4994803;28;20196;-87
2023/10/10 08:17:02;;;;;;;0.30;0.30;;;19.20;51.80;;;;;;4994010;28;20216;-87
2023/10/10 08:19:34;;;;;;;0.30;0.30;;;19.20;51.70;;;;;;4994072;28;20679;-86
2023/10/10 08:22:12;;;;;;;0.47;0.43;;;19.30;52.10;;;;;;4994086;28;20205;-84
2023/10/10 08:24:43;;;;;;;0.60;0.60;;;19.30;51.10;;;;;;4990383;28;20955;-88
2023/10/10 08:27:12;;;;;;;1.53;1.17;;;19.40;51.40;;;;;;4995588;28;20208;-87
2023/10/10 08:29:41;;;;;;;0.70;0.70;;;19.40;51.20;;;;;;4993817;28;20208;-88
2023/10/10 08:32:09;;;;;;;0.57;0.30;;;19.50;51.10;;;;;;4992993;28;20869;-88
2023/10/10 08:34:42;;;;;;;0.53;0.47;;;19.60;51.30;;;;;;4994185;28;20202;-87
2023/10/10 08:37:11;;;;;;;0.20;0.20;;;19.60;51.10;;;;;;4989775;28;20209;-86
2023/10/10 08:39:41;;;;;;;0.37;0.37;;;19.70;50.40;;;;;;4991988;28;20197;-86
2023/10/10 08:42:14;;;;;;;0.20;0.20;;;19.70;50.20;;;;;;4993294;28;20202;-88
2023/10/10 08:44:47;;;;;;;0.60;0.37;;;19.70;50.30;;;;;;4986606;28;20194;-88
2023/10/10 08:47:26;;;;;;;0.83;0.73;;;19.80;49.60;;;;;;4975774;28;20213;-87
2023/10/10 08:49:57;;;;;;;0.40;0.40;;;19.90;49.50;;;;;;4994202;28;20216;-87
2023/10/10 08:52:27;;;;;;;1.60;0.40;;;19.90;49.60;;;;;;4990622;28;20217;-85
2023/10/10 08:54:55;;;;;;;0.83;0.50;;;19.90;49.20;;;;;;4976036;28;20198;-87
2023/10/10 08:57:27;;;;;;;0.52;0.50;;;19.90;49.60;;;;;;4990700;28;20450;-86
2023/10/10 08:59:56;;;;;;;1.93;1.30;;;19.90;49.50;;;;;;4989187;28;20194;-87
2023/10/10 09:02:33;;;;;;;4.60;1.50;;;20.00;49.70;;;;;;4987562;28;20247;-86
2023/10/10 09:05:05;;;;;;;0.30;0.30;;;20.00;49.60;;;;;;4975390;28;20212;-88
2023/10/10 09:07:34;;;;;;;1.27;0.93;;;20.10;49.10;;;;;;4991192;28;20220;-85
2023/10/10 09:10:05;;;;;;;0.40;0.40;;;20.20;49.10;;;;;;4993926;28;20221;-87
2023/10/10 09:12:52;;;;;;;1.77;0.33;;;20.20;48.90;;;;;;4993037;28;20645;-86
2023/10/10 09:15:21;;;;;;;0.63;0.43;;;20.20;48.90;;;;;;4977154;28;20633;-85
2023/10/10 09:17:55;;;;;;;1.13;0.73;;;20.20;49.10;;;;;;4993479;28;20551;-86
2023/10/10 09:20:28;;;;;;;0.30;0.30;;;20.30;49.10;;;;;;4976223;28;20221;-86
2023/10/10 09:23:04;;;;;;;0.30;0.30;;;20.30;48.70;;;;;;4977270;28;20201;-87
2023/10/10 09:25:42;;;;;;;0.63;0.50;;;20.30;48.80;;;;;;4996058;28;20239;-87
2023/10/10 09:28:15;;;;;;;0.65;0.63;;;20.40;48.70;;;;;;4991593;28;20188;-87
2023/10/10 09:30:58;;;;;;;0.98;0.50;;;20.40;48.90;;;;;;4994327;28;20225;-87
2023/10/10 09:33:29;;;;;;;0.20;0.20;;;20.40;49.20;;;;;;4989823;28;20614;-86
2023/10/10 09:36:08;;;;;;;0.70;0.50;;;20.50;49.20;;;;;;4987345;28;20232;-86
2023/10/10 09:38:47;;;;;;;2.75;1.38;;;20.50;49.30;;;;;;4993339;28;20257;-85
2023/10/10 09:41:27;;;;;;;0.98;0.82;;;20.60;49.30;;;;;;4991291;28;20208;-87
2023/10/10 09:47:12;;;;;;;0.30;0.30;;;20.60;49.40;;;;;;4973851;28;20210;-85
2023/10/10 09:49:43;;;;;;;0.45;0.45;;;20.70;49.40;;;;;;4991674;28;20276;-84
2023/10/10 09:55:08;;;;;;;0.25;0.25;;;20.80;49.50;;;;;;4979343;28;20584;-86
2023/10/10 09:57:40;;;;;;;0.45;0.45;;;20.80;49.20;;;;;;4987792;28;20912;-85
2023/10/10 10:00:14;;;;;;;0.28;0.28;;;20.80;49.20;;;;;;4975494;28;20221;-85
2023/10/10 10:02:59;;;;;;;3.20;0.40;;;20.90;49.20;;;;;;4979722;28;20192;-85
2023/10/10 10:05:30;;;;;;;23.47;0.70;;;20.90;49.00;;;;;;4996151;28;20185;-88
2023/10/10 10:08:07;;;;;;;0.60;0.52;;;20.90;49.50;;;;;;4996077;28;20204;-87
2023/10/10 10:10:49;;;;;;;2.57;0.77;;;20.80;48.60;;;;;;4995405;28;20205;-87
2023/10/10 10:13:39;;;;;;;0.40;0.40;;;20.90;48.80;;;;;;4992254;28;20197;-87
2023/10/10 10:16:34;;;;;;;0.98;0.70;;;20.90;48.80;;;;;;4988861;28;21177;-87
2023/10/10 10:19:14;;;;;;;1.23;0.55;;;20.90;48.60;;;;;;4988737;28;20224;-85
2023/10/10 10:21:53;;;;;;;2.28;0.82;;;21.00;48.80;;;;;;4990613;28;20197;-83
2023/10/10 10:24:32;;;;;;;0.28;0.28;;;21.00;49.00;;;;;;5004211;28;20199;-83
2023/10/10 10:27:24;;;;;;;0.73;0.70;;;21.10;48.80;;;;;;4994743;28;20458;-86
2023/10/10 10:30:08;;;;;;;0.30;0.30;;;21.10;48.90;;;;;;4990640;28;20189;-86
2023/10/10 10:32:41;;;;;;;0.30;0.30;;;21.20;48.90;;;;;;4988745;28;20276;-85
2023/10/10 10:35:13;;;;;;;0.20;0.20;;;21.20;48.90;;;;;;4980592;28;20220;-85
2023/10/10 10:37:43;;;;;;;0.45;0.45;;;21.30;48.70;;;;;;4978928;28;20355;-85
2023/10/10 10:40:24;;;;;;;0.20;0.20;;;21.30;48.40;;;;;;4988191;28;20212;-84
2023/10/10 10:42:57;;;;;;;0.20;0.20;;;21.30;48.20;;;;;;4975089;28;20247;-84
2023/10/10 10:45:35;;;;;;;0.30;0.30;;;21.30;48.00;;;;;;4986702;28;20288;-87
2023/10/10 10:48:10;;;;;;;0.70;0.70;;;21.40;48.10;;;;;;4982975;28;20551;-86
2023/10/10 10:51:22;;;;;;;0.55;0.55;;;21.40;48.00;;;;;;4982638;28;20185;-86
2023/10/10 11:09:52;;;;;;;0.40;0.30;;;21.50;47.60;;;;;;5210565;23;20235;-84
2023/10/10 11:12:48;;;;;;;0.60;0.60;;;21.50;47.60;;;;;;4903805;29;20291;-84
2023/10/10 11:15:38;;;;;;;0.28;0.28;;;21.60;47.50;;;;;;4900714;29;20259;-83
2023/10/10 11:18:34;;;;;;;0.22;0.22;;;21.60;47.20;;;;;;4897383;29;20256;-86
2023/10/10 11:21:11;;;;;;;0.30;0.30;;;21.60;47.50;;;;;;4898064;29;20248;-86
2023/10/10 11:23:42;;;;;;;0.30;0.30;;;21.70;47.40;;;;;;4893721;29;20521;-83
2023/10/10 11:26:16;;;;;;;0.20;0.20;;;21.70;47.60;;;;;;4894952;29;20204;-85
2023/10/10 11:28:48;;;;;;;0.30;0.30;;;21.70;47.50;;;;;;4892709;29;20229;-88
2023/10/10 11:31:23;;;;;;;1.00;0.57;;;21.80;47.20;;;;;;4889115;29;20286;-85
2023/10/10 11:34:10;;;;;;;0.40;0.40;;;21.80;47.00;;;;;;4899853;29;20199;-87
2023/10/10 11:36:39;;;;;;;2.47;0.65;;;21.80;46.90;;;;;;4900876;29;20192;-84
2023/10/10 11:39:31;;;;;;;0.40;0.40;;;21.80;46.90;;;;;;4905367;29;20208;-86
2023/10/10 11:42:05;;;;;;;1.17;0.43;;;21.80;46.70;;;;;;4898055;29;20196;-86
2023/10/10 11:44:34;;;;;;;0.47;0.32;;;21.90;46.70;;;;;;4905738;29;20610;-86
2023/10/10 11:47:08;;;;;;;2.15;0.47;;;21.90;46.60;;;;;;4910430;29;20221;-90
2023/10/10 11:49:37;;;;;;;0.20;0.20;;;21.80;46.20;;;;;;4910752;29;20207;-85
2023/10/10 11:52:16;;;;;;;0.20;0.20;;;21.90;46.50;;;;;;4901767;29;20200;-86
2023/10/10 11:54:45;;;;;;;0.20;0.20;;;21.90;46.30;;;;;;4897314;29;20196;-86
2023/10/10 11:57:15;;;;;;;0.65;0.65;;;21.90;46.10;;;;;;4894313;29;20241;-85
2023/10/10 11:59:46;;;;;;;0.47;0.43;;;21.90;46.20;;;;;;4890670;29;20219;-85
2023/10/10 12:02:18;;;;;;;0.50;0.40;;;21.90;46.10;;;;;;4916869;29;20286;-85
2023/10/10 12:04:47;;;;;;;0.68;0.68;;;21.90;46.10;;;;;;4911334;29;20195;-85
2023/10/10 12:07:18;;;;;;;0.30;0.30;;;22.00;46.20;;;;;;4901423;29;20200;-85
2023/10/10 12:09:51;;;;;;;0.30;0.30;;;22.00;46.30;;;;;;4894546;29;20237;-87
2023/10/10 12:12:24;;;;;;;3.38;0.50;;;22.00;46.10;;;;;;4892522;29;20656;-83
2023/10/10 12:14:53;;;;;;;0.30;0.28;;;22.10;46.40;;;;;;4911197;29;20200;-83
2023/10/10 12:17:23;;;;;;;0.20;0.20;;;22.00;46.10;;;;;;4907600;29;20236;-82
2023/10/10 12:19:51;;;;;;;1.90;1.15;;;22.10;46.00;;;;;;4913228;29;20287;-83
2023/10/10 12:22:22;;;;;;;0.22;0.22;;;22.10;46.10;;;;;;4909626;29;20204;-82
2023/10/10 12:24:51;;;;;;;3.03;1.38;;;22.10;46.10;;;;;;4898433;29;20211;-82
2023/10/10 12:27:29;;;;;;;2.00;0.63;;;22.10;46.00;;;;;;4912940;29;20208;-84
2023/10/10 12:29:58;;;;;;;0.68;0.68;;;22.10;46.00;;;;;;4905906;29;20287;-82
2023/10/10 12:32:27;;;;;;;0.22;0.22;;;22.20;46.10;;;;;;4907591;29;20346;-83
2023/10/10 12:34:59;;;;;;;0.15;0.15;;;22.20;46.30;;;;;;4901043;29;20200;-83
2023/10/10 12:37:28;;;;;;;0.20;0.20;;;22.30;46.30;;;;;;4905616;29;20275;-81
2023/10/10 12:39:56;;;;;;;1.08;0.32;;;22.30;45.90;;;;;;4911638;29;20196;-83
2023/10/10 12:42:26;;;;;;;0.43;0.40;;;22.40;46.10;;;;;;4905260;29;20197;-81
2023/10/10 12:44:55;;;;;;;0.10;0.10;;;22.30;45.70;;;;;;4918358;29;20290;-82
2023/10/10 12:47:24;;;;;;;0.25;0.25;;;22.40;45.70;;;;;;4911780;29;20642;-82
2023/10/10 12:49:56;;;;;;;0.35;0.35;;;22.40;45.70;;;;;;4913091;29;20205;-83
2023/10/10 12:52:32;;;;;;;0.30;0.30;;;22.50;46.10;;;;;;4905226;29;20212;-83
2023/10/10 12:55:01;;;;;;;0.68;0.68;;;22.50;45.70;;;;;;4915666;29;20200;-85
2023/10/10 12:57:33;;;;;;;0.20;0.20;;;22.50;46.10;;;;;;4919904;29;20243;-83
2023/10/10 13:02:44;;;;;;;0.20;0.20;;;22.70;45.50;;;;;;4915873;29;20212;-83
2023/10/10 13:05:13;;;;;;;3.00;0.50;;;22.70;46.20;;;;;;4915434;29;20229;-83
2023/10/10 13:07:43;;;;;;;0.30;0.30;;;22.80;45.60;;;;;;4918189;29;20212;-82
2023/10/10 13:10:13;;;;;;;0.30;0.30;;;22.70;45.40;;;;;;4909836;29;20288;-83
2023/10/10 13:12:46;;;;;;;1.35;0.47;;;22.70;45.30;;;;;;4912752;29;20244;-83
2023/10/10 13:15:18;;;;;;;0.25;0.25;;;22.70;45.20;;;;;;4897840;29;20208;-84
2023/10/10 13:17:53;;;;;;;2.65;0.55;;;22.80;45.30;;;;;;4904204;29;20212;-85
2023/10/10 13:20:22;;;;;;;0.63;0.40;;;22.70;45.20;;;;;;4915835;29;20202;-84
2023/10/10 13:23:51;;;;;;;0.68;0.50;;;22.70;45.00;;;;;;4910926;29;20268;-87
2023/10/10 13:26:58;;;;;;;0.20;0.20;;;22.70;45.00;;;;;;4844263;29;20206;-84
2023/10/10 14:34:44;;;;;;;0.10;0.10;;;22.00;46.00;;;;;;4687019;30;20246;-83
2023/10/10 14:37:15;;;;;;;0.40;0.40;;;22.00;46.10;;;;;;4737124;30;20531;-83
2023/10/10 14:40:09;;;;;;;0.20;0.20;;;21.90;46.30;;;;;;4767922;29;20215;-84
2023/10/10 14:42:38;;;;;;;1.38;1.20;;;21.80;46.40;;;;;;4783731;29;20204;-83
2023/10/10 14:45:12;;;;;;;1.63;0.73;;;21.80;46.30;;;;;;4783906;29;20257;-85
2023/10/10 14:47:43;;;;;;;3.05;1.35;;;21.70;46.40;;;;;;4785805;29;20209;-84
2023/10/10 14:50:12;;;;;;;1.58;0.55;;;21.70;46.50;;;;;;4757587;30;20301;-84
2023/10/10 14:52:47;;;;;;;0.45;0.45;;;21.60;46.60;;;;;;4788238;29;20222;-84
2023/10/10 14:55:25;;;;;;;0.95;0.88;;;21.50;46.70;;;;;;4791300;29;20245;-85
2023/10/10 14:57:55;;;;;;;0.40;0.30;;;21.50;46.60;;;;;;4785439;29;20239;-84
2023/10/10 15:00:25;;;;;;;0.40;0.30;;;21.40;46.80;;;;;;4838480;29;20220;-84
2023/10/10 15:02:54;;;;;;;0.90;0.55;;;21.40;46.70;;;;;;4867523;29;20201;-85
2023/10/10 15:05:24;;;;;;;0.52;0.52;;;21.30;46.80;;;;;;4909754;29;20287;-84
2023/10/10 15:07:54;;;;;;;0.40;0.32;;;21.20;46.80;;;;;;4897109;29;20197;-84
2023/10/10 15:10:25;;;;;;;7.10;0.47;;;21.10;46.80;;;;;;4900320;29;20195;-85
2023/10/10 15:12:57;;;;;;;0.20;0.20;;;21.00;46.80;;;;;;4895392;29;20276;-86
2023/10/10 15:15:28;;;;;;;2.60;1.20;;;20.90;46.80;;;;;;4894864;29;20241;-87
2023/10/10 15:17:57;;;;;;;0.20;0.20;;;20.90;46.80;;;;;;4907173;29;20196;-86
2023/10/10 15:20:27;;;;;;;2.83;0.75;;;20.80;46.80;;;;;;4896474;29;20192;-85
2023/10/10 15:30:08;;;;;;;1.23;0.70;;;20.60;47.10;;;;;;4746239;30;20701;-83
2023/10/10 15:32:47;;;;;;;0.77;0.77;;;20.50;47.00;;;;;;4751158;30;20206;-81
2023/10/10 15:35:20;;;;;;;1.80;0.93;;;20.50;47.30;;;;;;4757837;30;20629;-83
2023/10/10 15:38:05;;;;;;;0.30;0.30;;;20.40;47.10;;;;;;4775759;29;20265;-84
2023/10/10 15:40:48;;;;;;;0.77;0.50;;;20.30;47.10;;;;;;4809798;29;20216;-83
2023/10/10 15:43:25;;;;;;;0.20;0.20;;;20.20;47.10;;;;;;4890753;29;20211;-83
2023/10/10 15:46:07;;;;;;;0.40;0.40;;;20.20;47.10;;;;;;4903052;29;20461;-84
2023/10/10 15:48:48;;;;;;;0.60;0.50;;;20.20;47.20;;;;;;4898435;29;20307;-82
2023/10/10 15:51:44;;;;;;;0.40;0.40;;;20.10;47.30;;;;;;4893701;29;20232;-83
2023/10/10 16:21:08;;;;;;;0.40;0.40;;;19.40;47.20;;;;;;4663063;30;20281;-84
2023/10/10 16:23:43;;;;;;;1.33;1.03;;;19.40;47.30;;;;;;4711737;30;20200;-85
2023/10/10 17:11:48;;;;;;;;;;;;;;;;;;;;;
2023/10/10 17:19:09;;;;;;;0.30;0.30;;;18.70;47.90;;;;;;4751807;29;20231;-85
2023/10/10 17:22:28;;;;;;;0.97;0.97;;;18.60;47.90;;;;;;4765574;29;20601;-86
2023/10/10 17:33:28;;;;;;;0.20;0.20;;;18.30;48.00;;;;;;4745784;30;20209;-84
2023/10/10 17:36:27;;;;;;;0.97;0.80;;;18.30;48.10;;;;;;4752956;29;20910;-83
2023/10/10 17:57:41;;;;;;;;;;;;;;;;;;;;;
2023/10/10 18:01:19;;;;;;;0.43;0.43;;;18.10;48.60;;;;;;4770889;29;20228;-84
2023/10/10 18:36:28;;;;;;;1.37;0.70;;;17.80;48.60;;;;;;4812886;29;20312;-86
2023/10/10 18:39:00;;;;;;;0.30;0.30;;;17.70;48.50;;;;;;4883323;29;20214;-87
2023/10/10 18:41:29;;;;;;;0.20;0.20;;;17.70;48.40;;;;;;4900202;29;20626;-84
2023/10/10 18:43:58;;;;;;;0.23;0.23;;;17.70;48.50;;;;;;4906417;29;20203;-87
2023/10/10 18:46:27;;;;;;;0.50;0.50;;;17.70;48.40;;;;;;4905820;29;20196;-85
2023/10/10 18:48:57;;;;;;;0.20;0.20;;;17.70;48.40;;;;;;4897475;29;20558;-84
2023/10/10 18:51:32;;;;;;;0.37;0.37;;;17.70;48.40;;;;;;4909658;29;20200;-84
2023/10/10 18:54:08;;;;;;;0.20;0.20;;;17.60;48.20;;;;;;4904397;29;20208;-85
2023/10/10 18:56:40;;;;;;;0.37;0.37;;;17.60;48.10;;;;;;4906033;29;20663;-85
2023/10/10 18:59:09;;;;;;;1.63;0.77;;;17.60;48.20;;;;;;4908806;29;20207;-86
2023/10/10 19:01:48;;;;;;;0.30;0.30;;;17.60;48.10;;;;;;4907244;29;20224;-85
2023/10/10 19:04:18;;;;;;;0.40;0.40;;;17.60;48.10;;;;;;4906220;29;20208;-86
2023/10/10 19:06:53;;;;;;;0.30;0.30;;;17.50;47.80;;;;;;4906932;29;20267;-84
2023/10/10 19:09:23;;;;;;;0.20;0.20;;;17.50;47.50;;;;;;4907341;29;20667;-85
2023/10/10 19:11:57;;;;;;;0.20;0.20;;;17.50;47.60;;;;;;4904471;29;20192;-86
2023/10/10 19:14:33;;;;;;;0.40;0.40;;;17.50;47.40;;;;;;4910255;29;20205;-86
2023/10/10 19:17:02;;;;;;;0.47;0.47;;;17.40;47.50;;;;;;4905393;29;20223;-85
2023/10/10 19:19:31;;;;;;;0.50;0.50;;;17.40;47.30;;;;;;4902612;29;20273;-85
2023/10/10 19:22:04;;;;;;;0.67;0.67;;;17.40;47.30;;;;;;4897721;29;20200;-85
2023/10/10 19:24:39;;;;;;;0.20;0.20;;;17.40;47.40;;;;;;4901816;29;20283;-85
2023/10/10 19:27:10;;;;;;;1.50;0.70;;;17.40;47.50;;;;;;4899196;29;20200;-86
2023/10/10 19:29:39;;;;;;;1.10;0.57;;;17.40;47.50;;;;;;4913148;29;20191;-86
2023/10/10 19:32:08;;;;;;;0.30;0.30;;;17.40;47.60;;;;;;4912532;29;20262;-86
2023/10/10 19:34:37;;;;;;;0.20;0.20;;;17.40;47.30;;;;;;4912947;29;20246;-86
2023/10/10 19:37:09;;;;;;;0.67;0.30;;;17.40;47.30;;;;;;4909648;29;20291;-87
2023/10/10 19:39:38;;;;;;;0.83;0.67;;;17.40;47.40;;;;;;4906312;29;20191;-86
2023/10/10 19:42:07;;;;;;;8.93;0.63;;;17.40;47.40;;;;;;4908542;29;20207;-86